Hartland Point — ZIQS6 — position and weather

sailwx.info

Track history (hours):
 
Tides and Currents Weather Stations Pressure Air Temp Water Temp Dewpoint Dewpoint Depression Visibility Wind Speed Wind Dir Waves Ship Positions

Hartland Point

Last reported at 2016-Feb-10 17:33 UTC. Time now 2016-Feb-10 17:51 UTC.
Position N 50°49' W 001°18'.

Length 193 m; draft 6 m.

Type: Ship. MMSI: 235505000.

Date/timePositionNaut miles runAvg speedWind from/ knotsBaromVisibWave heightAir tempDewpointWater temp
2016-Feb-10 17:33N 50°49' W 001°18'7 6.5
2016-Feb-10 16:30N 50°54' W 001°25'0 0.0
2016-Feb-10 15:26N 50°54' W 001°25'0 0.0
2016-Feb-10 14:29N 50°54' W 001°25'0 0.0
2016-Feb-10 12:04N 50°54' W 001°25'0 0.0
2016-Feb-10 11:09N 50°54' W 001°25'0 0.0
2016-Feb-10 09:33N 50°54' W 001°25'0 0.0
2016-Feb-10 08:32N 50°54' W 001°25'0 0.0
2016-Feb-10 07:32N 50°54' W 001°25'0 0.0
2016-Feb-10 06:30N 50°54' W 001°25'0 0.0
2016-Feb-10 05:13N 50°54' W 001°25'0 0.0
2016-Feb-10 02:30N 50°54' W 001°25'0 0.0
2016-Feb-10 01:11N 50°54' W 001°25'0 0.0
2016-Feb-10 00:17N 50°54' W 001°25'0 0.0
2016-Feb-09 22:19N 50°54' W 001°25'0 0.0
2016-Feb-09 21:24N 50°54' W 001°25'0 0.0
2016-Feb-09 20:21N 50°54' W 001°25'0 0.0
2016-Feb-09 19:08N 50°54' W 001°25'0 0.0
2016-Feb-09 18:26N 50°54' W 001°25'0 0.0
2016-Feb-09 17:26N 50°54' W 001°25'0 0.0
2016-Feb-09 16:31N 50°54' W 001°25'0 0.0
2016-Feb-09 15:07N 50°54' W 001°25'0 0.0
2016-Feb-09 11:15N 50°54' W 001°25'4 5.1
2016-Feb-09 10:33N 50°51' W 001°21'6 5.8
2016-Feb-09 09:31N 50°47' W 001°14'0 0.0
2016-Feb-09 08:31N 50°47' W 001°14'0 0.0
2016-Feb-09 07:33N 50°47' W 001°14'5 4.7
2016-Feb-09 06:33N 50°50' W 001°19'5 0.1
2016-Feb-07 21:26N 50°54' W 001°25'0 0.0
2016-Feb-07 20:32N 50°54' W 001°25'0 0.0
2016-Feb-07 19:31N 50°54' W 001°25'0 0.0
2016-Feb-07 18:31N 50°54' W 001°25'0 0.0
2016-Feb-07 17:33N 50°54' W 001°25'0 0.0
2016-Feb-07 16:30N 50°54' W 001°25'0 0.0
2016-Feb-07 15:26N 50°54' W 001°25'0 0.0
2016-Feb-07 14:32N 50°54' W 001°25'0 0.0
2016-Feb-07 13:32N 50°54' W 001°25'0 0.0
2016-Feb-07 12:31N 50°54' W 001°25'0 0.0
2016-Feb-07 11:31N 50°54' W 001°25'0 0.0
2016-Feb-07 02:18N 50°54' W 001°25'0 0.0
2016-Feb-07 01:32N 50°54' W 001°25'0 0.0
2016-Feb-07 00:32N 50°54' W 001°25'0 0.0
2016-Feb-06 23:32N 50°54' W 001°25'0 0.0
2016-Feb-06 22:31N 50°54' W 001°25'0 0.0
2016-Feb-06 21:31N 50°54' W 001°25'0 0.0
2016-Feb-06 20:33N 50°54' W 001°25'0 0.0
2016-Feb-06 19:33N 50°54' W 001°25'0 0.0
2016-Feb-06 18:32N 50°54' W 001°25'0 0.0
2016-Feb-06 17:32N 50°54' W 001°25'0 0.0
2016-Feb-06 16:28N 50°54' W 001°25'0 0.0
2016-Feb-06 15:31N 50°54' W 001°25'0 0.0
2016-Feb-06 14:28N 50°54' W 001°25'0 0.0
2016-Feb-06 13:33N 50°54' W 001°25'0 0.0
2016-Feb-06 12:18N 50°54' W 001°25'0 0.0
2016-Feb-06 01:22N 50°54' W 001°25'0 0.0
2016-Feb-06 00:28N 50°54' W 001°25'0 0.0
2016-Feb-05 23:33N 50°54' W 001°25'0 0.0
2016-Feb-05 22:33N 50°54' W 001°25'0 0.0
2016-Feb-05 21:29N 50°54' W 001°25'0 0.0
2016-Feb-05 13:32N 50°54' W 001°25'0 0.0
2016-Feb-05 12:28N 50°54' W 001°25'0 0.0
2016-Feb-05 11:22N 50°54' W 001°25'0 0.0
2016-Feb-05 01:18N 50°54' W 001°25'0 0.0
2016-Feb-04 19:12N 50°54' W 001°25'0 0.0
2016-Feb-04 18:11N 50°54' W 001°25'0 0.0
2016-Feb-04 15:16N 50°54' W 001°25'0 0.0
2016-Feb-04 14:16N 50°54' W 001°25'0 0.0
2016-Feb-04 12:33N 50°54' W 001°25'0 0.0
2016-Feb-04 11:33N 50°54' W 001°25'0 0.0
2016-Feb-04 10:32N 50°54' W 001°25'0 0.0
2016-Feb-04 09:26N 50°54' W 001°25'0 0.0
2016-Feb-04 08:31N 50°54' W 001°25'0 0.0
2016-Feb-04 07:31N 50°54' W 001°25'0 0.0
2016-Feb-04 06:33N 50°54' W 001°25'0 0.0
2016-Feb-04 05:31N 50°54' W 001°25'4 4.0
2016-Feb-04 04:33N 50°51' W 001°21'1211.8
2016-Feb-04 03:33N 50°45' W 001°05'1313.4
2016-Feb-04 02:33N 50°38' W 000°47'1312.9
2016-Feb-04 01:32N 50°34' W 000°27'1312.9
2016-Feb-04 00:33N 50°31' W 000°07'1313.0
2016-Feb-03 23:32N 50°34' E 000°12'1313.1
2016-Feb-03 22:33N 50°37' E 000°32'1313.2
2016-Feb-03 21:33N 50°44' E 000°50'1312.9
2016-Feb-03 20:33N 50°52' E 001°06'1212.3
2016-Feb-03 19:33N 51°00' E 001°21'1212.6
2016-Feb-03 18:33N 51°08' E 001°36'1312.6
2016-Feb-03 17:33N 51°18' E 001°49'1414.2
2016-Feb-03 16:34N 51°30' E 002°01'1514.3
2016-Feb-03 15:32N 51°40' E 002°18'10413.9
2016-Feb-03 08:05N 53°01' E 004°05'714.0
2016-Feb-03 07:33N 53°05' E 004°14'3113.9
2016-Feb-03 05:20N 53°30' E 004°45'1013.6
2016-Feb-03 04:34N 53°34' E 005°01'1313.0
2016-Feb-03 03:34N 53°40' E 005°21'1212.4
2016-Feb-03 02:34N 53°43' E 005°41'1211.5
2016-Feb-03 01:33N 53°46' E 006°00'1010.2
2016-Feb-03 00:33N 53°42' E 006°16'1110.6
2016-Feb-02 23:33N 53°37' E 006°32'1514.7
2016-Feb-02 22:33N 53°28' E 006°51'1312.6
2016-Feb-02 21:34N 53°20' E 007°08'2 1.5
2016-Feb-02 20:28N 53°20' E 007°10'0 0.0
2016-Feb-02 19:30N 53°20' E 007°10'0 0.0
2016-Feb-02 18:30N 53°20' E 007°10'0 0.0
2016-Feb-02 17:32N 53°20' E 007°10'0 0.0
2016-Feb-02 16:32N 53°20' E 007°10'0 0.0
2016-Feb-02 15:28N 53°20' E 007°10'0 0.0
2016-Feb-02 14:28N 53°20' E 007°10'0 0.0
2016-Feb-02 13:33N 53°20' E 007°10'0 0.0
2016-Feb-02 12:27N 53°20' E 007°10'0 0.0
2016-Feb-02 11:31N 53°20' E 007°10'0 0.0
2016-Feb-02 10:32N 53°20' E 007°10'0 0.0
2016-Feb-02 09:32N 53°20' E 007°10'0 0.0
2016-Feb-02 08:28N 53°20' E 007°10'0 0.0
2016-Feb-02 07:31N 53°20' E 007°10'0 0.0
2016-Feb-02 06:31N 53°20' E 007°10'0 0.0
2016-Feb-02 05:33N 53°20' E 007°10'0 0.1
2016-Feb-02 04:33N 53°20' E 007°10'8 7.5
2016-Feb-02 03:33N 53°22' E 006°58'1818.0
2016-Feb-02 02:33N 53°35' E 006°37'1313.3
2016-Feb-02 01:33N 53°39' E 006°16'1212.2
2016-Feb-02 00:34N 53°39' E 005°55'1413.6
2016-Feb-01 23:33N 53°35' E 005°33'1313.0
2016-Feb-01 22:33N 53°31' E 005°13'2711.3
2016-Feb-01 20:11N 53°16' E 004°36'711.4
2016-Feb-01 19:32N 53°09' E 004°29'1211.0
2016-Feb-01 18:29N 52°59' E 004°20'1010.5
2016-Feb-01 17:29N 52°50' E 004°13'9511.9
2016-Feb-01 09:32N 51°40' E 002°29'1515.1
2016-Feb-01 08:33N 51°28' E 002°14'1515.1
2016-Feb-01 07:33N 51°14' E 002°05'1515.3
2016-Feb-01 06:33N 51°06' E 001°45'1615.9
2016-Feb-01 05:33N 50°54' E 001°28'  
Track history (hours):
 
Tides and Currents Weather Stations Pressure Air Temp Water Temp Dewpoint Dewpoint Depression Visibility Wind Speed Wind Dir Waves Ship Positions

Hartland Point

Last reported at 2016-Feb-10 17:33 UTC. Time now 2016-Feb-10 17:51 UTC.
Position N 50°49' W 001°18'.

Length 193 m; draft 6 m.

Type: Ship. MMSI: 235505000.

Date/timePositionNaut miles runAvg speedWind from/ knotsBaromVisibWave heightAir tempDewpointWater temp
2016-Feb-10 17:33N 50°49' W 001°18'7 6.5
2016-Feb-10 16:30N 50°54' W 001°25'0 0.0
2016-Feb-10 15:26N 50°54' W 001°25'0 0.0
2016-Feb-10 14:29N 50°54' W 001°25'0 0.0
2016-Feb-10 12:04N 50°54' W 001°25'0 0.0
2016-Feb-10 11:09N 50°54' W 001°25'0 0.0
2016-Feb-10 09:33N 50°54' W 001°25'0 0.0
2016-Feb-10 08:32N 50°54' W 001°25'0 0.0
2016-Feb-10 07:32N 50°54' W 001°25'0 0.0
2016-Feb-10 06:30N 50°54' W 001°25'0 0.0
2016-Feb-10 05:13N 50°54' W 001°25'0 0.0
2016-Feb-10 02:30N 50°54' W 001°25'0 0.0
2016-Feb-10 01:11N 50°54' W 001°25'0 0.0
2016-Feb-10 00:17N 50°54' W 001°25'0 0.0
2016-Feb-09 22:19N 50°54' W 001°25'0 0.0
2016-Feb-09 21:24N 50°54' W 001°25'0 0.0
2016-Feb-09 20:21N 50°54' W 001°25'0 0.0
2016-Feb-09 19:08N 50°54' W 001°25'0 0.0
2016-Feb-09 18:26N 50°54' W 001°25'0 0.0
2016-Feb-09 17:26N 50°54' W 001°25'0 0.0
2016-Feb-09 16:31N 50°54' W 001°25'0 0.0
2016-Feb-09 15:07N 50°54' W 001°25'0 0.0
2016-Feb-09 11:15N 50°54' W 001°25'4 5.1
2016-Feb-09 10:33N 50°51' W 001°21'6 5.8
2016-Feb-09 09:31N 50°47' W 001°14'0 0.0
2016-Feb-09 08:31N 50°47' W 001°14'0 0.0
2016-Feb-09 07:33N 50°47' W 001°14'5 4.7
2016-Feb-09 06:33N 50°50' W 001°19'5 0.1
2016-Feb-07 21:26N 50°54' W 001°25'0 0.0
2016-Feb-07 20:32N 50°54' W 001°25'0 0.0
2016-Feb-07 19:31N 50°54' W 001°25'0 0.0
2016-Feb-07 18:31N 50°54' W 001°25'0 0.0
2016-Feb-07 17:33N 50°54' W 001°25'0 0.0
2016-Feb-07 16:30N 50°54' W 001°25'0 0.0
2016-Feb-07 15:26N 50°54' W 001°25'0 0.0
2016-Feb-07 14:32N 50°54' W 001°25'0 0.0
2016-Feb-07 13:32N 50°54' W 001°25'0 0.0
2016-Feb-07 12:31N 50°54' W 001°25'0 0.0
2016-Feb-07 11:31N 50°54' W 001°25'0 0.0
2016-Feb-07 02:18N 50°54' W 001°25'0 0.0
2016-Feb-07 01:32N 50°54' W 001°25'0 0.0
2016-Feb-07 00:32N 50°54' W 001°25'0 0.0
2016-Feb-06 23:32N 50°54' W 001°25'0 0.0
2016-Feb-06 22:31N 50°54' W 001°25'0 0.0
2016-Feb-06 21:31N 50°54' W 001°25'0 0.0
2016-Feb-06 20:33N 50°54' W 001°25'0 0.0
2016-Feb-06 19:33N 50°54' W 001°25'0 0.0
2016-Feb-06 18:32N 50°54' W 001°25'0 0.0
2016-Feb-06 17:32N 50°54' W 001°25'0 0.0
2016-Feb-06 16:28N 50°54' W 001°25'0 0.0
2016-Feb-06 15:31N 50°54' W 001°25'0 0.0
2016-Feb-06 14:28N 50°54' W 001°25'0 0.0
2016-Feb-06 13:33N 50°54' W 001°25'0 0.0
2016-Feb-06 12:18N 50°54' W 001°25'0 0.0
2016-Feb-06 01:22N 50°54' W 001°25'0 0.0
2016-Feb-06 00:28N 50°54' W 001°25'0 0.0
2016-Feb-05 23:33N 50°54' W 001°25'0 0.0
2016-Feb-05 22:33N 50°54' W 001°25'0 0.0
2016-Feb-05 21:29N 50°54' W 001°25'0 0.0
2016-Feb-05 13:32N 50°54' W 001°25'0 0.0
2016-Feb-05 12:28N 50°54' W 001°25'0 0.0
2016-Feb-05 11:22N 50°54' W 001°25'0 0.0
2016-Feb-05 01:18N 50°54' W 001°25'0 0.0
2016-Feb-04 19:12N 50°54' W 001°25'0 0.0
2016-Feb-04 18:11N 50°54' W 001°25'0 0.0
2016-Feb-04 15:16N 50°54' W 001°25'0 0.0
2016-Feb-04 14:16N 50°54' W 001°25'0 0.0
2016-Feb-04 12:33N 50°54' W 001°25'0 0.0
2016-Feb-04 11:33N 50°54' W 001°25'0 0.0
2016-Feb-04 10:32N 50°54' W 001°25'0 0.0
2016-Feb-04 09:26N 50°54' W 001°25'0 0.0
2016-Feb-04 08:31N 50°54' W 001°25'0 0.0
2016-Feb-04 07:31N 50°54' W 001°25'0 0.0
2016-Feb-04 06:33N 50°54' W 001°25'0 0.0
2016-Feb-04 05:31N 50°54' W 001°25'4 4.0
2016-Feb-04 04:33N 50°51' W 001°21'1211.8
2016-Feb-04 03:33N 50°45' W 001°05'1313.4
2016-Feb-04 02:33N 50°38' W 000°47'1312.9
2016-Feb-04 01:32N 50°34' W 000°27'1312.9
2016-Feb-04 00:33N 50°31' W 000°07'1313.0
2016-Feb-03 23:32N 50°34' E 000°12'1313.1
2016-Feb-03 22:33N 50°37' E 000°32'1313.2
2016-Feb-03 21:33N 50°44' E 000°50'1312.9
2016-Feb-03 20:33N 50°52' E 001°06'1212.3
2016-Feb-03 19:33N 51°00' E 001°21'1212.6
2016-Feb-03 18:33N 51°08' E 001°36'1312.6
2016-Feb-03 17:33N 51°18' E 001°49'1414.2
2016-Feb-03 16:34N 51°30' E 002°01'1514.3
2016-Feb-03 15:32N 51°40' E 002°18'10413.9
2016-Feb-03 08:05N 53°01' E 004°05'714.0
2016-Feb-03 07:33N 53°05' E 004°14'3113.9
2016-Feb-03 05:20N 53°30' E 004°45'1013.6
2016-Feb-03 04:34N 53°34' E 005°01'1313.0
2016-Feb-03 03:34N 53°40' E 005°21'1212.4
2016-Feb-03 02:34N 53°43' E 005°41'1211.5
2016-Feb-03 01:33N 53°46' E 006°00'1010.2
2016-Feb-03 00:33N 53°42' E 006°16'1110.6
2016-Feb-02 23:33N 53°37' E 006°32'1514.7
2016-Feb-02 22:33N 53°28' E 006°51'1312.6
2016-Feb-02 21:34N 53°20' E 007°08'2 1.5
2016-Feb-02 20:28N 53°20' E 007°10'0 0.0
2016-Feb-02 19:30N 53°20' E 007°10'0 0.0
2016-Feb-02 18:30N 53°20' E 007°10'0 0.0
2016-Feb-02 17:32N 53°20' E 007°10'0 0.0
2016-Feb-02 16:32N 53°20' E 007°10'0 0.0
2016-Feb-02 15:28N 53°20' E 007°10'0 0.0
2016-Feb-02 14:28N 53°20' E 007°10'0 0.0
2016-Feb-02 13:33N 53°20' E 007°10'0 0.0
2016-Feb-02 12:27N 53°20' E 007°10'0 0.0
2016-Feb-02 11:31N 53°20' E 007°10'0 0.0
2016-Feb-02 10:32N 53°20' E 007°10'0 0.0
2016-Feb-02 09:32N 53°20' E 007°10'0 0.0
2016-Feb-02 08:28N 53°20' E 007°10'0 0.0
2016-Feb-02 07:31N 53°20' E 007°10'0 0.0
2016-Feb-02 06:31N 53°20' E 007°10'0 0.0
2016-Feb-02 05:33N 53°20' E 007°10'0 0.1
2016-Feb-02 04:33N 53°20' E 007°10'8 7.5
2016-Feb-02 03:33N 53°22' E 006°58'1818.0
2016-Feb-02 02:33N 53°35' E 006°37'1313.3
2016-Feb-02 01:33N 53°39' E 006°16'1212.2
2016-Feb-02 00:34N 53°39' E 005°55'1413.6
2016-Feb-01 23:33N 53°35' E 005°33'1313.0
2016-Feb-01 22:33N 53°31' E 005°13'2711.3
2016-Feb-01 20:11N 53°16' E 004°36'711.4
2016-Feb-01 19:32N 53°09' E 004°29'1211.0
2016-Feb-01 18:29N 52°59' E 004°20'1010.5
2016-Feb-01 17:29N 52°50' E 004°13'9511.9
2016-Feb-01 09:32N 51°40' E 002°29'1515.1
2016-Feb-01 08:33N 51°28' E 002°14'1515.1
2016-Feb-01 07:33N 51°14' E 002°05'1515.3
2016-Feb-01 06:33N 51°06' E 001°45'1615.9
2016-Feb-01 05:33N 50°54' E 001°28'  

Dump ship's entire track history